createdAt,value
2019-04-07T00:00:55.358Z,15.10
2019-04-07T00:03:27.793Z,15.00
2019-04-07T00:05:59.783Z,15.00
2019-04-07T00:08:32.929Z,15.00
2019-04-07T00:11:04.736Z,14.90
2019-04-07T00:13:36.535Z,14.90
2019-04-07T00:16:08.479Z,14.80
2019-04-07T00:18:40.146Z,14.80
2019-04-07T00:21:12.493Z,14.80
2019-04-07T00:23:44.297Z,14.70
2019-04-07T00:26:16.018Z,14.70
2019-04-07T00:28:47.723Z,14.60
2019-04-07T00:31:19.480Z,14.50
2019-04-07T00:33:51.637Z,14.50
2019-04-07T00:36:23.600Z,14.40
2019-04-07T00:38:55.292Z,14.30
2019-04-07T00:41:27.525Z,14.30
2019-04-07T00:43:59.456Z,14.20
2019-04-07T00:46:32.248Z,14.10
2019-04-07T00:49:04.042Z,14.10
2019-04-07T00:51:36.026Z,14.00
2019-04-07T00:54:08.388Z,13.90
2019-04-07T00:56:40.152Z,13.90
2019-04-07T00:59:11.838Z,13.80
2019-04-07T01:01:43.584Z,13.70
2019-04-07T01:04:15.341Z,13.60
2019-04-07T01:06:47.323Z,13.50
2019-04-07T01:09:20.020Z,13.50
2019-04-07T01:11:52.373Z,13.40
2019-04-07T01:14:25.605Z,13.30
2019-04-07T01:16:58.309Z,13.30
2019-04-07T01:19:30.035Z,13.20
2019-04-07T01:22:02.369Z,13.20
2019-04-07T01:24:34.160Z,13.10
2019-04-07T01:27:05.839Z,13.10
2019-04-07T01:29:37.238Z,13.00
2019-04-07T01:32:08.768Z,12.90
2019-04-07T01:34:40.461Z,12.90
2019-04-07T01:37:12.174Z,12.80
2019-04-07T01:39:43.885Z,12.70
2019-04-07T01:42:37.592Z,12.70
2019-04-07T01:45:29.116Z,12.60
2019-04-07T01:48:17.749Z,12.50
2019-04-07T01:51:06.720Z,12.50
2019-04-07T01:54:00.181Z,12.40
2019-04-07T01:56:46.459Z,12.30
2019-04-07T01:59:42.468Z,12.30
2019-04-07T02:02:33.320Z,12.30
2019-04-07T02:05:15.588Z,12.30
2019-04-07T02:08:05.473Z,12.20
2019-04-07T02:10:51.619Z,12.10
2019-04-07T02:13:57.347Z,12.10
2019-04-07T02:16:45.461Z,12.10
2019-04-07T02:19:34.656Z,12.10
2019-04-07T02:22:23.919Z,12.00
2019-04-07T02:25:15.359Z,12.00
2019-04-07T02:28:03.411Z,11.90
2019-04-07T02:30:58.972Z,11.80
2019-04-07T02:33:52.593Z,11.80
2019-04-07T02:36:56.059Z,11.70
2019-04-07T02:40:03.337Z,11.70
2019-04-07T02:43:01.615Z,11.60
2019-04-07T02:45:56.474Z,11.50
2019-04-07T02:48:47.115Z,11.50
2019-04-07T02:51:52.829Z,11.40
2019-04-07T02:54:44.465Z,11.40
2019-04-07T02:57:34.029Z,11.30
2019-04-07T03:00:31.668Z,11.20
2019-04-07T03:03:25.057Z,11.20
2019-04-07T03:06:37.455Z,11.10
2019-04-07T03:09:15.387Z,11.10
2019-04-07T03:12:00.334Z,11.10
2019-04-07T03:14:39.971Z,11.00
2019-04-07T03:17:26.145Z,11.00
2019-04-07T03:20:32.834Z,11.00
2019-04-07T03:23:22.661Z,11.00
2019-04-07T03:26:02.902Z,10.90
2019-04-07T03:28:49.371Z,10.90
2019-04-07T03:31:59.160Z,10.90
2019-04-07T03:34:44.753Z,10.80
2019-04-07T03:38:04.554Z,10.80
2019-04-07T03:41:05.307Z,10.80
2019-04-07T03:44:06.114Z,10.80
2019-04-07T03:46:45.696Z,10.80
2019-04-07T03:50:00.150Z,10.70
2019-04-07T03:52:54.375Z,10.70
2019-04-07T03:55:44.024Z,10.60
2019-04-07T03:58:32.881Z,10.60
2019-04-07T04:01:35.500Z,10.50
2019-04-07T04:04:29.868Z,10.50
2019-04-07T04:07:28.451Z,10.40
2019-04-07T04:09:55.927Z,10.40
2019-04-07T04:12:47.269Z,10.30
2019-04-07T04:15:22.405Z,10.30
2019-04-07T04:17:53.945Z,10.30
2019-04-07T04:20:25.304Z,10.20
2019-04-07T04:22:57.199Z,10.20
2019-04-07T04:25:30.508Z,10.20
2019-04-07T04:28:02.660Z,10.10
2019-04-07T04:30:34.128Z,10.10
2019-04-07T04:33:06.264Z,10.10
2019-04-07T04:35:38.793Z,10.00
2019-04-07T04:38:10.453Z,10.00
2019-04-07T04:40:42.675Z,10.00
2019-04-07T04:43:14.204Z,9.90
2019-04-07T04:45:46.169Z,9.90
2019-04-07T04:48:17.699Z,9.90
2019-04-07T04:50:49.282Z,9.90
2019-04-07T04:53:21.473Z,9.80
2019-04-07T04:55:53.570Z,9.80
2019-04-07T04:58:25.832Z,9.80
2019-04-07T05:00:57.797Z,9.80
2019-04-07T05:03:29.273Z,9.80
2019-04-07T05:06:01.409Z,9.80
2019-04-07T05:08:32.970Z,9.70
2019-04-07T05:11:04.391Z,9.70
2019-04-07T05:13:35.840Z,9.70
2019-04-07T05:16:07.275Z,9.70
2019-04-07T05:18:38.645Z,9.70
2019-04-07T05:21:10.544Z,9.70
2019-04-07T05:23:42.122Z,9.70
2019-04-07T05:26:13.593Z,9.70
2019-04-07T05:28:45.075Z,9.70
2019-04-07T05:31:16.599Z,9.70
2019-04-07T05:33:48.004Z,9.70
2019-04-07T05:36:19.476Z,9.70
2019-04-07T05:38:51.089Z,9.70
2019-04-07T05:41:22.997Z,9.70
2019-04-07T05:43:54.559Z,9.70
2019-04-07T05:46:28.033Z,9.70
2019-04-07T05:48:58.927Z,9.80
2019-04-07T05:51:31.371Z,9.80
2019-04-07T05:54:03.556Z,9.90
2019-04-07T05:56:35.733Z,9.90
2019-04-07T05:59:09.920Z,10.00
2019-04-07T06:01:41.350Z,10.00
2019-04-07T06:04:17.518Z,10.10
2019-04-07T06:06:46.313Z,10.20
2019-04-07T06:09:18.913Z,10.30
2019-04-07T06:11:51.030Z,10.30
2019-04-07T06:14:22.681Z,10.40
2019-04-07T06:16:55.485Z,10.50
2019-04-07T06:19:27.367Z,10.50
2019-04-07T06:21:59.138Z,10.60
2019-04-07T06:24:33.329Z,10.70
2019-04-07T06:27:03.591Z,10.70
2019-04-07T06:29:35.525Z,10.80
2019-04-07T06:32:09.846Z,10.90
2019-04-07T06:34:43.339Z,11.00
2019-04-07T06:37:14.531Z,11.10
2019-04-07T06:39:58.064Z,11.20
2019-04-07T06:42:32.423Z,11.30
2019-04-07T06:45:02.823Z,11.50
2019-04-07T06:47:53.517Z,11.60
2019-04-07T06:50:48.601Z,11.70
2019-04-07T06:53:32.727Z,11.90
2019-04-07T06:56:10.185Z,12.00
2019-04-07T06:59:00.370Z,12.20
2019-04-07T07:02:09.609Z,12.40
2019-04-07T07:05:13.610Z,12.50
2019-04-07T07:08:02.513Z,12.70
2019-04-07T07:11:00.942Z,12.90
2019-04-07T07:13:49.919Z,13.10
2019-04-07T07:16:35.007Z,13.30
2019-04-07T07:19:34.708Z,13.50
2019-04-07T07:22:16.117Z,13.70
2019-04-07T07:24:47.633Z,13.80
2019-04-07T07:27:20.594Z,14.00
2019-04-07T07:29:53.739Z,14.20
2019-04-07T07:32:25.919Z,14.40
2019-04-07T07:34:57.588Z,14.50
2019-04-07T07:37:29.053Z,14.70
2019-04-07T07:40:02.112Z,14.80
2019-04-07T07:42:33.562Z,15.00
2019-04-07T07:45:08.273Z,15.20
2019-04-07T07:47:38.455Z,15.40
2019-04-07T07:52:38.722Z,15.70
2019-04-07T07:55:10.988Z,16.40
2019-04-07T07:57:56.800Z,16.90
2019-04-07T08:00:27.137Z,17.40
2019-04-07T08:02:59.280Z,18.00
2019-04-07T08:05:33.378Z,18.50
2019-04-07T08:08:04.781Z,19.10
2019-04-07T08:10:36.351Z,19.70
2019-04-07T08:13:08.843Z,20.20
2019-04-07T08:15:40.473Z,20.80
2019-04-07T08:18:12.436Z,21.40
2019-04-07T08:20:45.162Z,22.00
2019-04-07T08:23:17.576Z,22.50
2019-04-07T08:25:48.975Z,23.00
2019-04-07T08:28:21.699Z,23.40
2019-04-07T08:30:53.209Z,23.90
2019-04-07T08:33:24.861Z,24.10
2019-04-07T08:35:56.340Z,24.40
2019-04-07T08:38:28.374Z,24.70
2019-04-07T08:40:59.901Z,25.10
2019-04-07T08:43:31.977Z,25.50
2019-04-07T08:46:04.743Z,25.80
2019-04-07T08:48:37.886Z,26.10
2019-04-07T08:51:10.059Z,26.30
2019-04-07T08:53:44.136Z,26.50
2019-04-07T08:56:16.354Z,26.70
2019-04-07T08:58:47.854Z,27.00
2019-04-07T09:01:21.143Z,27.10
2019-04-07T09:03:54.461Z,27.30
2019-04-07T09:06:28.473Z,27.50
2019-04-07T09:08:59.127Z,27.70
2019-04-07T09:11:32.100Z,27.80
2019-04-07T09:14:06.042Z,27.80
2019-04-07T09:16:56.178Z,28.00
2019-04-07T09:19:45.769Z,28.00
2019-04-07T09:22:36.417Z,28.00
2019-04-07T09:25:41.885Z,27.90
2019-04-07T09:28:31.618Z,27.70
2019-04-07T09:31:09.503Z,27.40
2019-04-07T09:34:01.406Z,27.00
2019-04-07T09:36:51.992Z,26.60
2019-04-07T09:39:56.285Z,26.20
2019-04-07T09:42:36.373Z,25.70
2019-04-07T09:45:38.570Z,25.20
2019-04-07T09:48:22.954Z,24.80
2019-04-07T09:51:06.943Z,24.30
2019-04-07T09:53:55.427Z,24.10
2019-04-07T09:56:38.324Z,23.70
2019-04-07T09:59:27.325Z,23.40
2019-04-07T10:02:24.006Z,23.10
2019-04-07T10:05:13.371Z,22.80
2019-04-07T10:08:04.336Z,22.50
2019-04-07T10:11:00.607Z,22.30
2019-04-07T10:13:56.556Z,22.20
2019-04-07T10:16:37.696Z,22.00
2019-04-07T10:19:26.941Z,21.90
2019-04-07T10:22:21.169Z,21.80
2019-04-07T10:25:04.545Z,21.70
2019-04-07T10:27:54.525Z,21.60
2019-04-07T10:30:44.089Z,21.60
2019-04-07T10:33:39.039Z,21.70
2019-04-07T10:36:29.792Z,22.00
2019-04-07T10:39:10.765Z,22.30
2019-04-07T10:42:04.674Z,22.70
2019-04-07T10:44:50.550Z,23.00
2019-04-07T10:47:29.376Z,23.30
2019-04-07T10:50:13.005Z,23.40
2019-04-07T10:53:09.634Z,23.50
2019-04-07T10:55:56.331Z,23.40
2019-04-07T10:58:39.251Z,23.40
2019-04-07T11:01:38.589Z,23.40
2019-04-07T11:04:29.419Z,23.60
2019-04-07T11:07:18.760Z,23.80
2019-04-07T11:10:32.594Z,24.00
2019-04-07T11:13:03.173Z,24.10
2019-04-07T11:16:00.668Z,24.30
2019-04-07T11:19:00.157Z,24.40
2019-04-07T11:21:56.750Z,24.60
2019-04-07T11:24:53.705Z,24.90
2019-04-07T11:27:47.228Z,25.30
2019-04-07T11:30:29.492Z,25.50
2019-04-07T11:33:07.959Z,25.70
2019-04-07T11:35:45.600Z,25.80
2019-04-07T11:38:39.322Z,25.80
2019-04-07T11:41:39.241Z,25.70
2019-04-07T11:44:38.888Z,25.60
2019-04-07T11:47:25.301Z,25.40
2019-04-07T11:50:15.259Z,25.10
2019-04-07T11:52:58.402Z,25.00
2019-04-07T11:55:44.317Z,24.90
2019-04-07T11:58:35.852Z,24.80
2019-04-07T12:01:32.746Z,24.70
2019-04-07T12:04:26.297Z,24.70
2019-04-07T12:07:14.427Z,24.80
2019-04-07T12:10:05.057Z,25.10
2019-04-07T12:12:55.002Z,25.40
2019-04-07T12:15:50.911Z,25.80
2019-04-07T12:18:38.697Z,26.20
2019-04-07T12:21:21.338Z,26.50
2019-04-07T12:24:19.388Z,26.60
2019-04-07T12:27:01.064Z,26.70
2019-04-07T12:30:00.183Z,27.30
2019-04-07T12:32:56.506Z,27.70
2019-04-07T12:35:39.085Z,28.20
2019-04-07T12:38:43.223Z,28.70
2019-04-07T12:41:42.573Z,29.00
2019-04-07T12:44:20.152Z,29.30
2019-04-07T12:47:17.016Z,29.30
2019-04-07T12:50:16.642Z,29.10
2019-04-07T12:53:15.508Z,28.70
2019-04-07T12:56:10.066Z,28.30
2019-04-07T12:58:50.618Z,27.70
2019-04-07T13:01:56.441Z,27.30
2019-04-07T13:04:42.845Z,27.10
2019-04-07T13:07:48.410Z,26.80
2019-04-07T13:10:42.957Z,26.50
2019-04-07T13:13:33.748Z,26.40
2019-04-07T13:16:28.188Z,26.30
2019-04-07T13:19:37.116Z,26.20
2019-04-07T13:22:34.409Z,25.90
2019-04-07T13:25:20.247Z,25.60
2019-04-07T13:28:08.281Z,25.30
2019-04-07T13:30:50.318Z,25.10
2019-04-07T13:33:43.606Z,24.90
2019-04-07T13:36:25.634Z,24.70
2019-04-07T13:39:02.741Z,24.60
2019-04-07T13:41:56.380Z,24.30
2019-04-07T13:44:46.830Z,24.00
2019-04-07T13:47:42.617Z,23.90
2019-04-07T13:50:33.291Z,23.60
2019-04-07T13:53:31.889Z,23.40
2019-04-07T13:56:21.124Z,23.20
2019-04-07T13:59:21.613Z,23.00
2019-04-07T14:02:26.401Z,23.00
2019-04-07T14:08:31.244Z,23.10
2019-04-07T14:11:25.152Z,23.00
2019-04-07T14:14:05.918Z,23.00
2019-04-07T14:17:07.341Z,23.00
2019-04-07T14:20:00.974Z,23.10
2019-04-07T14:22:52.130Z,23.10
2019-04-07T14:25:36.882Z,23.10
2019-04-07T14:28:30.907Z,23.00
2019-04-07T14:31:20.763Z,22.90
2019-04-07T14:34:11.864Z,22.90
2019-04-07T14:37:03.212Z,22.80
2019-04-07T14:39:58.742Z,22.80
2019-04-07T14:42:57.159Z,23.20
2019-04-07T14:45:48.825Z,23.50
2019-04-07T14:48:40.162Z,23.70
2019-04-07T14:51:43.115Z,23.60
2019-04-07T14:54:37.795Z,23.40
2019-04-07T14:57:26.897Z,23.30
2019-04-07T15:00:16.265Z,23.10
2019-04-07T15:02:47.787Z,23.00
2019-04-07T15:05:25.297Z,22.80
2019-04-07T15:08:18.891Z,22.70
2019-04-07T15:10:53.163Z,22.50
2019-04-07T15:13:28.191Z,22.30
2019-04-07T15:16:00.589Z,22.20
2019-04-07T15:18:32.351Z,22.00
2019-04-07T15:21:04.619Z,21.90
2019-04-07T15:23:36.834Z,21.80
2019-04-07T15:26:09.961Z,21.70
2019-04-07T15:28:42.402Z,21.60
2019-04-07T15:31:18.331Z,21.50
2019-04-07T15:33:51.353Z,21.40
2019-04-07T15:36:24.268Z,21.40
2019-04-07T15:38:58.138Z,21.30
2019-04-07T15:41:30.646Z,21.20
2019-04-07T15:44:06.222Z,21.10
2019-04-07T15:46:36.665Z,21.10
2019-04-07T15:49:10.543Z,21.00
2019-04-07T15:51:43.121Z,21.00
2019-04-07T15:54:14.760Z,20.90
2019-04-07T15:56:49.318Z,20.80
2019-04-07T15:59:21.504Z,20.70
2019-04-07T16:01:55.373Z,20.70
2019-04-07T16:04:30.734Z,20.60
2019-04-07T16:07:02.614Z,20.60
2019-04-07T16:09:44.331Z,20.50
2019-04-07T16:12:08.781Z,20.50
2019-04-07T16:14:44.937Z,20.40
2019-04-07T16:17:15.802Z,20.40
2019-04-07T16:19:52.040Z,20.40
2019-04-07T16:22:22.489Z,20.30
2019-04-07T16:24:56.132Z,20.20
2019-04-07T16:27:28.279Z,20.20
2019-04-07T16:30:01.240Z,20.20
2019-04-07T16:32:33.894Z,20.10
2019-04-07T16:35:07.098Z,20.10
2019-04-07T16:37:40.432Z,20.00
2019-04-07T16:40:13.031Z,20.00
2019-04-07T16:43:00.364Z,20.00
2019-04-07T16:45:19.234Z,20.00
2019-04-07T16:47:51.420Z,20.00
2019-04-07T16:50:23.469Z,19.90
2019-04-07T16:52:55.498Z,19.90
2019-04-07T16:55:34.928Z,19.90
2019-04-07T16:58:08.390Z,19.90
2019-04-07T17:00:40.537Z,19.90
2019-04-07T17:03:24.112Z,19.90
2019-04-07T17:05:58.991Z,19.90
2019-04-07T17:08:29.996Z,19.90
2019-04-07T17:11:06.429Z,19.90
2019-04-07T17:13:40.012Z,19.80
2019-04-07T17:16:10.965Z,19.80
2019-04-07T17:18:43.325Z,19.80
2019-04-07T17:21:18.344Z,19.80
2019-04-07T17:23:53.154Z,19.80
2019-04-07T17:26:45.484Z,19.70
2019-04-07T17:29:23.547Z,19.70
2019-04-07T17:31:58.549Z,19.70
2019-04-07T17:34:30.496Z,19.70
2019-04-07T17:37:04.117Z,19.60
2019-04-07T17:39:48.240Z,19.60
2019-04-07T17:42:21.144Z,19.60
2019-04-07T17:45:07.616Z,19.60
2019-04-07T17:48:07.033Z,19.60
2019-04-07T17:50:56.462Z,19.50
2019-04-07T17:53:47.243Z,19.50
2019-04-07T17:56:41.003Z,19.50
2019-04-07T17:59:32.535Z,19.40
2019-04-07T18:02:44.749Z,19.40
2019-04-07T18:05:39.200Z,19.40
2019-04-07T18:08:25.119Z,19.30
2019-04-07T18:11:04.331Z,19.30
2019-04-07T18:13:56.662Z,19.30
2019-04-07T18:16:48.258Z,19.20
2019-04-07T18:19:38.743Z,19.20
2019-04-07T18:22:23.379Z,19.20
2019-04-07T18:25:12.352Z,19.20
2019-04-07T18:28:03.013Z,19.10
2019-04-07T18:30:53.855Z,19.10
2019-04-07T18:33:43.480Z,19.10
2019-04-07T18:36:34.965Z,19.10
2019-04-07T18:39:27.642Z,19.10
2019-04-07T18:42:19.688Z,19.00
2019-04-07T18:45:21.766Z,19.00
2019-04-07T18:48:18.448Z,19.00
2019-04-07T18:51:10.644Z,19.00
2019-04-07T18:54:01.396Z,19.00
2019-04-07T18:56:54.786Z,19.00
2019-04-07T18:59:33.391Z,18.90
2019-04-07T19:02:31.758Z,18.90
2019-04-07T19:05:15.407Z,18.90
2019-04-07T19:08:05.990Z,18.90
2019-04-07T19:11:13.102Z,18.90
2019-04-07T19:14:14.321Z,18.80
2019-04-07T19:16:50.257Z,18.80
2019-04-07T19:19:38.669Z,18.80
2019-04-07T19:22:30.264Z,18.70
2019-04-07T19:25:15.617Z,18.70
2019-04-07T19:28:02.384Z,18.60
2019-04-07T19:30:50.128Z,18.50
2019-04-07T19:33:37.808Z,18.50
2019-04-07T19:36:27.382Z,18.40
2019-04-07T19:39:11.087Z,18.40
2019-04-07T19:41:56.294Z,18.40
2019-04-07T19:44:42.824Z,18.30
2019-04-07T19:47:31.178Z,18.30
2019-04-07T19:50:23.496Z,18.20
2019-04-07T19:53:10.544Z,18.20
2019-04-07T19:55:54.619Z,18.20
2019-04-07T19:58:40.980Z,18.10
2019-04-07T20:01:35.583Z,18.10
2019-04-07T20:04:24.806Z,18.00
2019-04-07T20:07:07.255Z,18.00
2019-04-07T20:10:03.816Z,17.90
2019-04-07T20:12:54.088Z,17.80
2019-04-07T20:15:45.067Z,17.80
2019-04-07T20:18:40.533Z,17.80
2019-04-07T20:21:20.011Z,17.70
2019-04-07T20:24:04.566Z,17.60
2019-04-07T20:27:01.456Z,17.50
2019-04-07T20:29:51.883Z,17.50
2019-04-07T20:32:36.220Z,17.40
2019-04-07T20:35:28.818Z,17.40
2019-04-07T20:38:08.340Z,17.30
2019-04-07T20:41:01.724Z,17.20
2019-04-07T20:43:42.605Z,17.20
2019-04-07T20:46:27.862Z,17.10
2019-04-07T20:49:35.770Z,17.00
2019-04-07T20:52:17.894Z,17.00
2019-04-07T20:55:03.750Z,16.90
2019-04-07T20:57:56.481Z,16.80
2019-04-07T21:01:00.120Z,16.80
2019-04-07T21:03:49.339Z,16.70
2019-04-07T21:06:37.942Z,16.70
2019-04-07T21:09:26.781Z,16.70
2019-04-07T21:12:23.461Z,16.60
2019-04-07T21:15:18.306Z,16.60
2019-04-07T21:17:52.480Z,16.60
2019-04-07T21:20:41.990Z,16.50
2019-04-07T21:23:37.381Z,16.50
2019-04-07T21:26:30.089Z,16.50
2019-04-07T21:29:08.940Z,16.40
2019-04-07T21:32:05.468Z,16.40
2019-04-07T21:35:01.366Z,16.40
2019-04-07T21:37:56.183Z,16.40
2019-04-07T21:40:45.879Z,16.30
2019-04-07T21:43:35.000Z,16.30
2019-04-07T21:46:24.842Z,16.20
2019-04-07T21:49:07.689Z,16.20
2019-04-07T21:51:55.307Z,16.20
2019-04-07T21:54:38.686Z,16.20
2019-04-07T21:57:30.104Z,16.10
2019-04-07T22:00:20.915Z,16.10
2019-04-07T22:03:03.387Z,16.10
2019-04-07T22:05:58.097Z,16.10
2019-04-07T22:08:37.429Z,16.00
2019-04-07T22:11:09.924Z,16.00
2019-04-07T22:13:41.421Z,16.00
2019-04-07T22:16:12.992Z,15.90
2019-04-07T22:18:44.984Z,15.90
2019-04-07T22:21:17.062Z,15.90
2019-04-07T22:23:48.561Z,15.90
2019-04-07T22:26:22.192Z,15.80
2019-04-07T22:28:53.677Z,15.80
2019-04-07T22:31:29.022Z,15.80
2019-04-07T22:34:02.361Z,15.80
2019-04-07T22:36:34.250Z,15.80
2019-04-07T22:39:07.774Z,15.70
2019-04-07T22:41:41.756Z,15.70
2019-04-07T22:44:13.367Z,15.70
2019-04-07T22:46:49.332Z,15.70
2019-04-07T22:49:20.182Z,15.60
2019-04-07T22:51:54.149Z,15.70
2019-04-07T22:54:30.184Z,15.60
2019-04-07T22:56:58.188Z,15.60
2019-04-07T22:59:30.202Z,15.60
2019-04-07T23:02:01.756Z,15.50
2019-04-07T23:04:34.214Z,15.50
2019-04-07T23:07:06.394Z,15.50
2019-04-07T23:09:39.084Z,15.50
2019-04-07T23:12:10.765Z,15.40
2019-04-07T23:14:42.321Z,15.40
2019-04-07T23:17:13.930Z,15.40
2019-04-07T23:19:46.219Z,15.40
2019-04-07T23:22:18.128Z,15.40
2019-04-07T23:24:49.728Z,15.40
2019-04-07T23:27:22.196Z,15.40
2019-04-07T23:29:54.855Z,15.30
2019-04-07T23:32:26.398Z,15.40
2019-04-07T23:34:58.103Z,15.40
2019-04-07T23:37:30.485Z,15.30
2019-04-07T23:40:02.483Z,15.40
2019-04-07T23:42:34.016Z,15.40
2019-04-07T23:45:06.305Z,15.40
2019-04-07T23:47:38.635Z,15.40
2019-04-07T23:50:11.158Z,15.40
2019-04-07T23:52:43.229Z,15.40
2019-04-07T23:55:15.490Z,15.40
2019-04-07T23:57:48.695Z,15.40
